createdAt,value
2024-04-30T05:25:49.051Z,14.10
2024-04-30T05:30:51.127Z,14.10
2024-04-30T05:35:53.110Z,14.10
2024-04-30T05:40:55.189Z,14.10
2024-04-30T05:45:57.391Z,14.10
2024-04-30T05:50:59.380Z,14.10
2024-04-30T05:56:01.380Z,14.10
2024-04-30T06:01:03.498Z,14.10
2024-04-30T06:06:09.905Z,14.10
2024-04-30T06:11:11.861Z,14.00
2024-04-30T06:16:13.824Z,14.00
2024-04-30T06:21:23.665Z,14.00
2024-04-30T06:26:31.424Z,14.10
2024-04-30T06:31:33.524Z,14.10
2024-04-30T06:36:35.789Z,14.10
2024-04-30T06:41:37.785Z,14.20
2024-04-30T06:46:39.827Z,14.10
2024-04-30T06:51:41.841Z,14.10
2024-04-30T06:56:43.799Z,14.30
2024-04-30T07:01:45.855Z,14.40
2024-04-30T07:06:47.952Z,14.40
2024-04-30T07:11:49.921Z,14.50
2024-04-30T07:16:56.987Z,14.60
2024-04-30T07:22:05.259Z,14.70
2024-04-30T07:27:07.269Z,14.90
2024-04-30T07:32:09.296Z,15.00
2024-04-30T07:37:11.413Z,15.10
2024-04-30T07:42:13.511Z,15.30
2024-04-30T07:47:15.657Z,15.40
2024-04-30T07:52:18.609Z,15.60
2024-04-30T07:57:20.660Z,15.80
2024-04-30T08:02:22.605Z,16.00
2024-04-30T08:07:25.348Z,16.10
2024-04-30T08:12:27.322Z,16.30
2024-04-30T08:17:29.483Z,16.40
2024-04-30T08:22:31.574Z,16.60
2024-04-30T08:27:33.527Z,16.80
2024-04-30T08:32:35.794Z,16.90
2024-04-30T08:37:47.348Z,17.00
2024-04-30T08:42:57.073Z,17.00
2024-04-30T08:48:01.337Z,17.20
2024-04-30T08:53:04.842Z,17.30
2024-04-30T08:58:06.957Z,17.40
2024-04-30T09:03:09.823Z,17.50
2024-04-30T09:08:13.964Z,17.50
2024-04-30T09:13:15.907Z,17.70
2024-04-30T09:18:17.944Z,17.80
2024-04-30T09:23:29.848Z,18.10
2024-04-30T09:28:31.857Z,18.30
2024-04-30T09:33:34.294Z,18.40
2024-04-30T09:38:39.946Z,18.50
2024-04-30T09:43:42.437Z,18.70
2024-04-30T09:48:45.092Z,18.80
2024-04-30T09:53:47.934Z,19.00
2024-04-30T09:58:49.928Z,19.20
2024-04-30T10:03:52.090Z,19.40
2024-04-30T10:08:54.212Z,19.60
2024-04-30T10:13:56.328Z,19.70
2024-04-30T10:19:03.829Z,19.90
2024-04-30T10:24:19.574Z,20.20
2024-04-30T10:29:21.506Z,20.50
2024-04-30T10:34:23.554Z,20.60
2024-04-30T10:39:26.965Z,20.80
2024-04-30T10:44:29.252Z,21.00
2024-04-30T10:49:31.191Z,21.30
2024-04-30T10:54:33.424Z,21.60
2024-04-30T10:59:35.371Z,21.80
2024-04-30T11:04:37.359Z,22.00
2024-04-30T11:09:40.849Z,22.30
2024-04-30T11:14:44.679Z,22.50
2024-04-30T11:19:46.869Z,22.70
2024-04-30T11:24:48.907Z,23.40
2024-04-30T11:29:50.924Z,23.90
2024-04-30T11:34:53.891Z,24.20
2024-04-30T11:39:56.073Z,24.30
2024-04-30T11:44:58.122Z,24.70
2024-04-30T11:50:00.049Z,25.00
2024-04-30T11:55:02.049Z,25.20
2024-04-30T12:00:05.366Z,25.50
2024-04-30T12:05:07.804Z,26.10
2024-04-30T12:10:11.122Z,26.30
2024-04-30T12:15:13.775Z,26.60
2024-04-30T12:20:15.827Z,26.90
2024-04-30T12:25:17.867Z,27.30
2024-04-30T12:30:20.749Z,27.70
2024-04-30T12:35:23.997Z,28.00
2024-04-30T12:40:26.152Z,28.00
2024-04-30T12:45:28.112Z,28.30
2024-04-30T12:50:30.109Z,28.50
2024-04-30T12:55:34.767Z,28.30
2024-04-30T13:00:37.105Z,28.50
2024-04-30T13:05:41.270Z,28.40
2024-04-30T13:10:43.532Z,27.50
2024-04-30T13:15:45.694Z,27.50
2024-04-30T13:20:48.168Z,27.50
2024-04-30T13:25:50.304Z,27.70
2024-04-30T13:30:52.351Z,27.90
2024-04-30T13:35:54.395Z,27.70
2024-04-30T13:40:56.351Z,27.70
2024-04-30T13:45:59.422Z,28.10
2024-04-30T13:51:01.714Z,28.60
2024-04-30T13:56:06.224Z,29.00
2024-04-30T14:01:18.189Z,29.40
2024-04-30T14:06:22.564Z,29.50
2024-04-30T14:11:24.629Z,29.20
2024-04-30T14:16:26.632Z,28.70
2024-04-30T14:21:28.571Z,28.50
2024-04-30T14:26:30.516Z,28.50
2024-04-30T14:31:32.512Z,28.40
2024-04-30T14:36:36.382Z,28.30
2024-04-30T14:41:41.304Z,28.00
2024-04-30T14:46:43.765Z,27.70
2024-04-30T14:51:45.871Z,27.30
2024-04-30T14:56:48.739Z,27.00
2024-04-30T15:01:51.938Z,26.70
2024-04-30T15:06:54.802Z,26.40
2024-04-30T15:11:56.830Z,26.20
2024-04-30T15:16:59.126Z,25.80
2024-04-30T15:22:01.764Z,25.70
2024-04-30T15:27:04.023Z,25.60
2024-04-30T15:32:06.220Z,25.40
2024-04-30T15:37:08.324Z,25.50
2024-04-30T15:42:10.266Z,25.90
2024-04-30T15:47:12.263Z,25.90
2024-04-30T15:52:14.275Z,25.80
2024-04-30T15:57:16.338Z,25.70
2024-04-30T16:02:18.425Z,25.50
2024-04-30T16:07:20.466Z,25.30
2024-04-30T16:12:22.432Z,25.20
2024-04-30T16:17:24.827Z,25.10
2024-04-30T16:22:26.870Z,25.20
2024-04-30T16:27:28.837Z,25.30
2024-04-30T16:32:30.912Z,25.50
2024-04-30T16:37:33.141Z,25.70
2024-04-30T16:42:37.411Z,25.60
2024-04-30T16:47:39.980Z,25.50
2024-04-30T16:52:41.993Z,25.20
2024-04-30T16:57:44.004Z,24.80
2024-04-30T17:02:46.026Z,24.40
2024-04-30T17:07:48.727Z,24.20
2024-04-30T17:12:51.076Z,24.00
2024-04-30T17:17:53.167Z,23.90
2024-04-30T17:22:55.125Z,23.70
2024-04-30T17:27:57.277Z,23.60
2024-04-30T17:32:59.471Z,23.50
2024-04-30T17:38:01.497Z,23.30
2024-04-30T17:43:03.546Z,23.30
2024-04-30T17:48:06.729Z,23.20
2024-04-30T17:53:08.900Z,23.10
2024-04-30T17:58:10.923Z,23.00
2024-04-30T18:03:12.932Z,22.90
2024-04-30T18:08:14.988Z,22.80
2024-04-30T18:13:16.994Z,22.70
2024-04-30T18:18:19.264Z,22.70
2024-04-30T18:23:22.129Z,22.60
2024-04-30T18:28:24.160Z,22.50
2024-04-30T18:33:26.372Z,22.40
2024-04-30T18:38:28.500Z,22.30
2024-04-30T18:43:30.480Z,22.20
2024-04-30T18:48:32.601Z,22.20
2024-04-30T18:53:34.782Z,22.10
2024-04-30T18:58:36.816Z,21.90
2024-04-30T19:03:38.906Z,21.90
2024-04-30T19:08:40.885Z,21.80
2024-04-30T19:13:44.704Z,21.70
2024-04-30T19:18:47.036Z,21.80
2024-04-30T19:23:49.119Z,21.70
2024-04-30T19:28:51.119Z,21.60
2024-04-30T19:33:53.442Z,21.50
2024-04-30T19:38:56.539Z,21.40
2024-04-30T21:03:45.634Z,20.20
